Time;durP1;ratioP1;P1;durP2;ratioP2;P2;SDS_P1;SDS_P2;PMS_P1;PMS_P2;Temp;Humidity;BMP_temperature;BMP_pressure;BME280_temperature;BME280_humidity;BME280_pressure;Samples;Min_cycle;Max_cycle;Signal;HPM_P1;HPM_P2
2023/05/07 00:00:00;;;;;;;;;4.33;3.00;;;;;-147.47;100.00;64613.53;5092716;27;45485;-64
2023/05/07 00:02:25;;;;;;;;;4.00;3.00;;;;;-147.47;100.00;64613.53;5086539;27;45404;-67
2023/05/07 00:04:51;;;;;;;;;4.00;4.00;;;;;-147.47;100.00;64613.53;5095999;27;45368;-65
2023/05/07 00:07:17;;;;;;;;;2.00;2.00;;;;;-147.47;100.00;64613.53;5098433;27;45886;-67
2023/05/07 00:09:43;;;;;;;;;2.33;2.33;;;;;-147.47;100.00;64613.53;5064336;27;45395;-66
2023/05/07 00:12:08;;;;;;;;;3.00;3.00;;;;;-147.47;100.00;64613.53;5086648;27;45788;-65
2023/05/07 00:14:33;;;;;;;;;2.33;2.33;;;;;-147.47;100.00;64613.53;5081111;27;46135;-66
2023/05/07 00:16:59;;;;;;;;;3.33;2.00;;;;;-147.47;100.00;64613.53;5071861;27;45750;-67
2023/05/07 00:19:24;;;;;;;;;3.33;3.00;;;;;-147.47;100.00;64613.53;5093164;27;45843;-66
2023/05/07 00:21:50;;;;;;;;;3.00;3.00;;;;;-147.47;100.00;64613.53;5084105;27;45689;-66
2023/05/07 00:24:15;;;;;;;;;4.00;4.00;;;;;-147.47;100.00;64613.53;5094768;27;45893;-67
2023/05/07 00:26:41;;;;;;;;;5.00;3.00;;;;;-147.47;100.00;64613.53;5095627;27;45482;-65
2023/05/07 00:29:06;;;;;;;;;2.33;2.33;;;;;-147.47;100.00;64613.53;5080683;27;45934;-67
2023/05/07 00:31:31;;;;;;;;;2.33;2.33;;;;;-147.47;100.00;64613.53;5086489;27;45557;-66
2023/05/07 00:33:57;;;;;;;;;4.00;3.00;;;;;-147.47;100.00;64613.53;5087855;27;45436;-65
2023/05/07 00:36:22;;;;;;;;;3.33;3.00;;;;;-147.47;100.00;64613.53;5071133;28;45510;-68
2023/05/07 00:38:47;;;;;;;;;3.33;2.33;;;;;-147.47;100.00;64613.53;5091931;27;45427;-67
2023/05/07 00:41:13;;;;;;;;;3.00;2.00;;;;;-147.47;100.00;64613.53;5095197;27;45472;-67
2023/05/07 00:43:38;;;;;;;;;3.00;3.00;;;;;-147.47;100.00;64613.53;5095237;27;45700;-66
2023/05/07 00:46:04;;;;;;;;;4.00;2.67;;;;;-147.47;100.00;64613.53;5087357;27;45452;-66
2023/05/07 00:48:30;;;;;;;;;5.67;3.00;;;;;-147.47;100.00;64613.53;5092300;27;45435;-67
2023/05/07 00:50:56;;;;;;;;;3.33;3.33;;;;;-147.47;100.00;64613.53;5077014;27;47389;-67
2023/05/07 00:53:22;;;;;;;;;2.00;2.00;;;;;-147.47;100.00;64613.53;5089533;27;45853;-65
2023/05/07 00:55:48;;;;;;;;;3.00;3.00;;;;;-147.47;100.00;64613.53;5091142;27;45438;-69
2023/05/07 00:58:13;;;;;;;;;4.00;3.33;;;;;-147.47;100.00;64613.53;5095358;27;45336;-66
2023/05/07 01:00:40;;;;;;;;;3.33;2.67;;;;;-147.47;100.00;64613.53;5093972;27;45595;-66
2023/05/07 01:03:06;;;;;;;;;5.00;3.00;;;;;-147.47;100.00;64613.53;5083684;27;45758;-67
2023/05/07 01:05:32;;;;;;;;;3.00;3.00;;;;;-147.47;100.00;64613.53;5094426;27;45979;-67
2023/05/07 01:07:59;;;;;;;;;5.67;5.00;;;;;-147.47;100.00;64613.53;5079983;27;45652;-67
2023/05/07 01:10:25;;;;;;;;;4.00;4.00;;;;;-147.47;100.00;64613.53;5093792;27;45909;-66
2023/05/07 01:12:51;;;;;;;;;6.67;4.00;;;;;-147.47;100.00;64613.53;5078104;27;46413;-68
2023/05/07 01:15:17;;;;;;;;;3.67;3.67;;;;;-147.47;100.00;64613.53;5086681;27;45687;-67
2023/05/07 01:17:43;;;;;;;;;5.67;3.33;;;;;-147.47;100.00;64613.53;5094327;27;45396;-67
2023/05/07 01:20:13;;;;;;;;;4.00;3.00;;;;;-147.47;100.00;64613.53;5089942;27;45420;-68
2023/05/07 01:22:39;;;;;;;;;3.00;3.00;;;;;-147.47;100.00;64613.53;5094613;27;46272;-66
2023/05/07 01:25:07;;;;;;;;;2.33;1.33;;;;;-147.47;100.00;64613.53;5083644;27;45479;-65
2023/05/07 01:27:33;;;;;;;;;2.33;2.33;;;;;-147.47;100.00;64613.53;5092142;27;45685;-67
2023/05/07 01:29:59;;;;;;;;;1.67;1.67;;;;;-147.47;100.00;64613.53;5087279;27;45571;-68
2023/05/07 01:32:59;;;;;;;;;2.00;2.00;;;;;-147.47;100.00;64613.53;5090111;27;46231;-66
2023/05/07 01:35:32;;;;;;;;;2.00;2.00;;;;;-147.47;100.00;64613.53;5084117;27;45489;-65
2023/05/07 01:37:57;;;;;;;;;3.33;2.00;;;;;-147.47;100.00;64613.53;5090718;27;45332;-67
2023/05/07 01:40:24;;;;;;;;;2.00;1.00;;;;;-147.47;100.00;64613.53;5067968;27;45775;-66
2023/05/07 01:42:50;;;;;;;;;0.00;0.00;;;;;-147.47;100.00;64613.53;5089765;27;46584;-66
2023/05/07 01:45:16;;;;;;;;;1.00;1.00;;;;;-147.47;100.00;64613.53;5076286;27;45440;-66
2023/05/07 01:47:43;;;;;;;;;2.50;1.00;;;;;-147.47;100.00;64613.53;5087509;27;45386;-64
2023/05/07 01:50:09;;;;;;;;;0.00;0.00;;;;;-147.47;100.00;64613.53;5093134;27;45366;-64
2023/05/07 01:52:37;;;;;;;;;1.00;0.00;;;;;-147.47;100.00;64613.53;5093916;27;45968;-63
2023/05/07 01:55:03;;;;;;;;;1.33;0.33;;;;;-147.47;100.00;64613.53;5073965;27;45747;-64
2023/05/07 01:57:29;;;;;;;;;0.00;0.00;;;;;-147.47;100.00;64613.53;5086102;27;45899;-64
2023/05/07 01:59:54;;;;;;;;;0.00;0.00;;;;;-147.47;100.00;64613.53;5093801;27;45945;-65
2023/05/07 02:02:20;;;;;;;;;0.67;0.67;;;;;-147.47;100.00;64613.53;5075733;27;47315;-65
2023/05/07 02:04:45;;;;;;;;;0.00;0.00;;;;;-147.47;100.00;64613.53;5093066;27;45403;-64
2023/05/07 02:07:11;;;;;;;;;2.33;1.00;;;;;-147.47;100.00;64613.53;5093990;27;45415;-64
2023/05/07 02:09:36;;;;;;;;;1.00;1.00;;;;;-147.47;100.00;64613.53;5093226;27;45711;-66
2023/05/07 02:12:02;;;;;;;;;1.50;0.00;;;;;-147.47;100.00;64613.53;5090157;27;46178;-66
2023/05/07 02:14:27;;;;;;;;;1.00;1.00;;;;;-147.47;100.00;64613.53;5088694;27;45739;-65
2023/05/07 02:16:52;;;;;;;;;1.50;0.25;;;;;-147.47;100.00;64613.53;5075302;27;45656;-64
2023/05/07 02:19:20;;;;;;;;;1.33;1.00;;;;;-147.47;100.00;64613.53;5086385;27;45457;-65
2023/05/07 02:21:46;;;;;;;;;0.00;0.00;;;;;-147.47;100.00;64613.53;5087463;27;45860;-64
2023/05/07 02:24:12;;;;;;;;;1.00;1.00;;;;;-147.47;100.00;64613.53;5087792;27;45364;-65
2023/05/07 02:26:37;;;;;;;;;1.50;0.50;;;;;-147.47;100.00;64613.53;5075397;27;45666;-64
2023/05/07 02:29:02;;;;;;;;;2.00;0.00;;;;;-147.47;100.00;64613.53;5069406;27;45927;-63
2023/05/07 02:31:28;;;;;;;;;2.33;2.00;;;;;-147.47;100.00;64613.53;5093401;27;45856;-64
2023/05/07 02:33:53;;;;;;;;;0.75;0.75;;;;;-147.47;100.00;64613.53;5092790;27;45677;-64
2023/05/07 02:36:18;;;;;;;;;0.00;0.00;;;;;-147.47;100.00;64613.53;5090044;27;45656;-64
2023/05/07 02:38:44;;;;;;;;;1.00;1.00;;;;;-147.47;100.00;64613.53;5088747;27;45830;-63
2023/05/07 02:41:09;;;;;;;;;1.00;1.00;;;;;-147.47;100.00;64613.53;5092763;27;46801;-64
2023/05/07 02:43:36;;;;;;;;;2.00;0.00;;;;;-147.47;100.00;64613.53;5091289;27;45676;-63
2023/05/07 02:46:08;;;;;;;;;0.00;0.00;;;;;-147.47;100.00;64613.53;5088779;27;46104;-63
2023/05/07 02:48:34;;;;;;;;;1.00;1.00;;;;;-147.47;100.00;64613.53;5079859;27;45736;-64
2023/05/07 02:51:00;;;;;;;;;1.00;1.00;;;;;-147.47;100.00;64613.53;5083595;27;45930;-64
2023/05/07 02:53:26;;;;;;;;;0.67;0.67;;;;;-147.47;100.00;64613.53;5087718;27;45352;-64
2023/05/07 02:55:56;;;;;;;;;1.00;1.00;;;;;-147.47;100.00;64613.53;5072283;27;45781;-64
2023/05/07 02:58:22;;;;;;;;;2.00;0.67;;;;;-147.47;100.00;64613.53;5069834;27;46015;-63
2023/05/07 03:00:47;;;;;;;;;1.00;1.00;;;;;-147.47;100.00;64613.53;5093041;27;46746;-64
2023/05/07 03:03:13;;;;;;;;;1.00;1.00;;;;;-147.47;100.00;64613.53;5093255;27;45511;-64
2023/05/07 03:05:39;;;;;;;;;2.00;2.00;;;;;-147.47;100.00;64613.53;5083544;27;45448;-64
2023/05/07 03:08:04;;;;;;;;;1.00;1.00;;;;;-147.47;100.00;64613.53;5087800;27;45488;-64
2023/05/07 03:10:30;;;;;;;;;0.00;0.00;;;;;-147.47;100.00;64613.53;5092706;27;45739;-64
2023/05/07 03:12:56;;;;;;;;;0.00;0.00;;;;;-147.47;100.00;64613.53;5072550;27;45662;-64
2023/05/07 03:15:21;;;;;;;;;2.00;2.00;;;;;-147.47;100.00;64613.53;5092948;27;45434;-63
2023/05/07 03:17:47;;;;;;;;;2.75;1.75;;;;;-147.47;100.00;64613.53;5093074;27;45532;-64
2023/05/07 03:20:13;;;;;;;;;2.00;1.00;;;;;-147.47;100.00;64613.53;5086776;27;45326;-65
2023/05/07 03:22:38;;;;;;;;;0.33;0.33;;;;;-147.47;100.00;64613.53;5073266;27;45889;-66
2023/05/07 03:25:05;;;;;;;;;2.67;2.00;;;;;-147.47;100.00;64613.53;5084185;27;45290;-64
2023/05/07 03:27:30;;;;;;;;;1.00;1.00;;;;;-147.47;100.00;64613.53;5085304;27;45530;-65
2023/05/07 03:29:56;;;;;;;;;3.00;1.00;;;;;-147.47;100.00;64613.53;5091435;27;45724;-67
2023/05/07 03:32:21;;;;;;;;;2.00;2.00;;;;;-147.47;100.00;64613.53;5068218;27;45647;-66
2023/05/07 03:34:47;;;;;;;;;2.00;2.00;;;;;-147.47;100.00;64613.53;5073212;27;45818;-66
2023/05/07 03:37:12;;;;;;;;;3.67;1.67;;;;;-147.47;100.00;64613.53;5085303;27;45411;-67
2023/05/07 03:39:37;;;;;;;;;2.00;2.00;;;;;-147.47;100.00;64613.53;5091882;27;46153;-65
2023/05/07 03:42:03;;;;;;;;;1.00;1.00;;;;;-147.47;100.00;64613.53;5092622;27;45475;-67
2023/05/07 03:44:29;;;;;;;;;2.00;2.00;;;;;-147.47;100.00;64613.53;5067423;28;45318;-63
2023/05/07 03:46:55;;;;;;;;;4.67;3.00;;;;;-147.47;100.00;64613.53;5085097;27;45399;-64
2023/05/07 03:49:21;;;;;;;;;1.33;1.33;;;;;-147.47;100.00;64613.53;5091666;27;46567;-64
2023/05/07 03:51:46;;;;;;;;;3.33;1.00;;;;;-147.47;100.00;64613.53;5091257;27;45737;-64
2023/05/07 03:54:12;;;;;;;;;1.33;1.33;;;;;-147.47;100.00;64613.53;5091992;27;45520;-63
2023/05/07 03:56:37;;;;;;;;;1.50;1.00;;;;;-147.47;100.00;64613.53;5091546;27;45449;-65
2023/05/07 03:59:02;;;;;;;;;1.00;1.00;;;;;-147.47;100.00;64613.53;5088706;27;46485;-63
2023/05/07 04:01:28;;;;;;;;;1.00;1.00;;;;;-147.47;100.00;64613.53;5083316;27;45644;-65
2023/05/07 04:03:53;;;;;;;;;2.00;2.00;;;;;-147.47;100.00;64613.53;5095734;27;45328;-63
2023/05/07 04:06:19;;;;;;;;;1.00;1.00;;;;;-147.47;100.00;64613.53;5100680;27;45462;-63
2023/05/07 04:08:44;;;;;;;;;1.00;1.00;;;;;-147.47;100.00;64613.53;5091354;27;46149;-63
2023/05/07 04:11:09;;;;;;;;;0.00;0.00;;;;;-147.47;100.00;64613.53;5078326;27;45326;-63
2023/05/07 04:13:35;;;;;;;;;1.00;1.00;;;;;-147.47;100.00;64613.53;5095586;27;46242;-63
2023/05/07 04:16:03;;;;;;;;;1.00;1.00;;;;;-147.47;100.00;64613.53;5087671;27;45916;-64
2023/05/07 04:18:28;;;;;;;;;1.00;1.00;;;;;-147.47;100.00;64613.53;5081209;27;46644;-63
2023/05/07 04:20:54;;;;;;;;;0.75;0.00;;;;;-147.47;100.00;64613.53;5092830;27;45644;-67
2023/05/07 04:23:20;;;;;;;;;2.00;1.00;;;;;-147.47;100.00;64613.53;5094861;27;45539;-67
2023/05/07 04:25:45;;;;;;;;;0.00;0.00;;;;;-147.47;100.00;64613.53;5072944;27;45743;-68
2023/05/07 04:28:11;;;;;;;;;2.00;1.00;;;;;-147.47;100.00;64613.53;5094288;27;46742;-67
2023/05/07 04:30:37;;;;;;;;;1.00;1.00;;;;;-147.47;100.00;64613.53;5095460;27;45491;-68
2023/05/07 04:33:02;;;;;;;;;2.00;1.00;;;;;-147.47;100.00;64613.53;5095213;27;45467;-67
2023/05/07 04:35:28;;;;;;;;;1.00;1.00;;;;;-147.47;100.00;64613.53;5081776;27;45841;-66
2023/05/07 04:37:53;;;;;;;;;2.67;1.67;;;;;-147.47;100.00;64613.53;5076129;27;45683;-66
2023/05/07 04:40:18;;;;;;;;;1.00;1.00;;;;;-147.47;100.00;64613.53;5079817;27;45503;-65
2023/05/07 04:42:44;;;;;;;;;3.00;1.67;;;;;-147.47;100.00;64613.53;5081377;27;45276;-65
2023/05/07 04:45:10;;;;;;;;;2.00;1.00;;;;;-147.47;100.00;64613.53;5094850;27;45726;-66
2023/05/07 04:47:36;;;;;;;;;1.00;1.00;;;;;-147.47;100.00;64613.53;5081673;27;45669;-65
2023/05/07 04:50:01;;;;;;;;;0.50;0.50;;;;;-147.47;100.00;64613.53;5082804;27;45671;-66
2023/05/07 04:52:27;;;;;;;;;1.00;1.00;;;;;-147.47;100.00;64613.53;5094265;27;45745;-64
2023/05/07 04:54:52;;;;;;;;;0.00;0.00;;;;;-147.47;100.00;64613.53;5094828;27;45429;-63
2023/05/07 04:57:17;;;;;;;;;1.00;1.00;;;;;-147.47;100.00;64613.53;5094030;27;45340;-64
2023/05/07 04:59:43;;;;;;;;;0.00;0.00;;;;;-147.47;100.00;64613.53;5092277;27;45506;-63
2023/05/07 05:02:12;;;;;;;;;1.00;1.00;;;;;-147.47;100.00;64613.53;5070562;27;45855;-64
2023/05/07 05:04:37;;;;;;;;;2.00;2.00;;;;;-147.47;100.00;64613.53;5076321;27;46558;-65
2023/05/07 05:07:06;;;;;;;;;0.00;0.00;;;;;-147.47;100.00;64613.53;5097678;27;45324;-64
2023/05/07 05:09:31;;;;;;;;;5.00;2.00;;;;;-147.47;100.00;64613.53;5091787;27;45663;-64
2023/05/07 05:11:56;;;;;;;;;1.00;1.00;;;;;-147.47;100.00;64613.53;5082687;27;45653;-64
2023/05/07 05:14:22;;;;;;;;;2.00;2.00;;;;;-147.47;100.00;64613.53;5094641;27;46303;-64
2023/05/07 05:16:47;;;;;;;;;1.00;1.00;;;;;-147.47;100.00;64613.53;5093709;27;45762;-63
2023/05/07 05:19:13;;;;;;;;;2.00;1.00;;;;;-147.47;100.00;64613.53;5088135;27;45705;-65
2023/05/07 05:21:38;;;;;;;;;2.00;1.00;;;;;-147.47;100.00;64613.53;5094432;27;46080;-64
2023/05/07 05:24:03;;;;;;;;;1.00;1.00;;;;;-147.47;100.00;64613.53;5083179;27;45370;-64
2023/05/07 05:26:29;;;;;;;;;3.00;2.00;;;;;-147.47;100.00;64613.53;5088750;27;46796;-66
2023/05/07 05:28:54;;;;;;;;;0.67;0.67;;;;;-147.47;100.00;64613.53;5091092;27;45397;-65
2023/05/07 05:31:20;;;;;;;;;1.00;1.00;;;;;-147.47;100.00;64613.53;5091610;27;45913;-65
2023/05/07 05:33:45;;;;;;;;;0.00;0.00;;;;;-147.47;100.00;64613.53;5087529;27;45421;-63
2023/05/07 05:36:12;;;;;;;;;2.00;1.00;;;;;-147.47;100.00;64613.53;5088914;27;45402;-65
2023/05/07 05:38:37;;;;;;;;;0.00;0.00;;;;;-147.47;100.00;64613.53;5090561;27;45692;-65
2023/05/07 05:41:03;;;;;;;;;3.00;0.00;;;;;-147.47;100.00;64613.53;5090404;27;46013;-65
2023/05/07 05:43:28;;;;;;;;;0.67;0.67;;;;;-147.47;100.00;64613.53;5093222;27;45688;-67
2023/05/07 05:45:56;;;;;;;;;2.00;0.75;;;;;-147.47;100.00;64613.53;5088439;27;46043;-64
2023/05/07 05:48:21;;;;;;;;;1.00;1.00;;;;;-147.47;100.00;64613.53;5087634;27;45687;-65
2023/05/07 05:50:46;;;;;;;;;3.00;1.00;;;;;-147.47;100.00;64613.53;5093277;27;45579;-65
2023/05/07 05:53:12;;;;;;;;;1.00;1.00;;;;;-147.47;100.00;64613.53;5090863;27;45639;-64
2023/05/07 05:55:37;;;;;;;;;0.00;0.00;;;;;-147.47;100.00;64613.53;5086988;27;45958;-65
2023/05/07 05:58:03;;;;;;;;;1.00;1.00;;;;;-147.47;100.00;64613.53;5090869;27;45690;-65
2023/05/07 06:00:29;;;;;;;;;2.00;2.00;;;;;-147.47;100.00;64613.53;5093755;27;45392;-67
2023/05/07 06:02:54;;;;;;;;;0.25;0.25;;;;;-147.47;100.00;64613.53;5087092;27;45681;-66
2023/05/07 06:05:20;;;;;;;;;2.00;2.00;;;;;-147.47;100.00;64613.53;5072178;28;46012;-66
2023/05/07 06:07:45;;;;;;;;;5.33;2.67;;;;;-147.47;100.00;64613.53;5098389;27;45286;-64
2023/05/07 06:10:10;;;;;;;;;3.67;2.00;;;;;-147.47;100.00;64613.53;5086881;27;45872;-64
2023/05/07 06:12:36;;;;;;;;;1.00;1.00;;;;;-147.47;100.00;64613.53;5081102;27;45566;-65
2023/05/07 06:15:01;;;;;;;;;3.00;1.00;;;;;-147.47;100.00;64613.53;5091322;27;46124;-66
2023/05/07 06:17:27;;;;;;;;;1.00;1.00;;;;;-147.47;100.00;64613.53;5080862;27;45369;-66
2023/05/07 06:19:52;;;;;;;;;2.00;1.00;;;;;-147.47;100.00;64613.53;5086487;27;45871;-66
2023/05/07 06:22:18;;;;;;;;;2.33;1.33;;;;;-147.47;100.00;64613.53;5088630;27;45555;-66
2023/05/07 06:24:43;;;;;;;;;1.00;1.00;;;;;-147.47;100.00;64613.53;5093407;27;46080;-65
2023/05/07 06:27:09;;;;;;;;;2.33;1.00;;;;;-147.47;100.00;64613.53;5092297;27;45287;-66
2023/05/07 06:29:34;;;;;;;;;3.00;2.00;;;;;-147.47;100.00;64613.53;5093211;27;45490;-66
2023/05/07 06:32:10;;;;;;;;;2.33;0.00;;;;;-147.47;100.00;64613.53;5093078;27;45541;-66
2023/05/07 06:34:36;;;;;;;;;2.75;2.00;;;;;-147.47;100.00;64613.53;5080366;27;46147;-67
2023/05/07 06:37:02;;;;;;;;;0.50;0.50;;;;;-147.47;100.00;64613.53;5082226;27;45482;-66
2023/05/07 06:39:28;;;;;;;;;0.00;0.00;;;;;-147.47;100.00;64613.53;5092576;27;45756;-67
2023/05/07 06:41:53;;;;;;;;;0.67;0.67;;;;;-147.47;100.00;64613.53;5064059;27;45941;-67
2023/05/07 06:44:18;;;;;;;;;0.00;0.00;;;;;-147.47;100.00;64613.53;5068217;27;45837;-66
2023/05/07 06:46:44;;;;;;;;;1.00;1.00;;;;;-147.47;100.00;64613.53;5091084;27;45746;-68
2023/05/07 06:49:10;;;;;;;;;0.00;0.00;;;;;-147.47;100.00;64613.53;5091634;27;45389;-70
2023/05/07 06:51:36;;;;;;;;;0.00;0.00;;;;;-147.47;100.00;64613.53;5092196;27;45647;-71
2023/05/07 06:54:01;;;;;;;;;1.50;1.50;;;;;-147.47;100.00;64613.53;5086605;27;46396;-69
2023/05/07 06:56:26;;;;;;;;;0.25;0.25;;;;;-147.47;100.00;64613.53;5081958;27;45529;-66
2023/05/07 06:58:52;;;;;;;;;1.00;1.00;;;;;-147.47;100.00;64613.53;5068139;27;45465;-68
2023/05/07 07:01:17;;;;;;;;;0.50;0.50;;;;;-147.47;100.00;64613.53;5079086;27;46255;-69
2023/05/07 07:03:42;;;;;;;;;2.25;2.00;;;;;-147.47;100.00;64613.53;5084203;27;45865;-68
2023/05/07 07:06:08;;;;;;;;;2.00;1.00;;;;;-147.47;100.00;64613.53;5096325;27;45341;-67
2023/05/07 07:08:34;;;;;;;;;1.75;1.75;;;;;-147.47;100.00;64613.53;5061629;27;45627;-68
2023/05/07 07:11:00;;;;;;;;;2.00;2.00;;;;;-147.47;100.00;64613.53;5092749;27;45852;-68
2023/05/07 07:13:25;;;;;;;;;1.00;1.00;;;;;-147.47;100.00;64613.53;5091901;27;45461;-70
2023/05/07 07:15:51;;;;;;;;;3.00;2.00;;;;;-147.47;100.00;64613.53;5092869;27;45305;-69
2023/05/07 07:18:17;;;;;;;;;1.00;1.00;;;;;-147.47;100.00;64613.53;5073940;27;46434;-67
2023/05/07 07:20:44;;;;;;;;;2.00;1.00;;;;;-147.47;100.00;64613.53;5084619;27;45735;-67
2023/05/07 07:23:09;;;;;;;;;2.00;2.00;;;;;-147.47;100.00;64613.53;5090638;27;46150;-66
2023/05/07 07:25:35;;;;;;;;;4.00;1.33;;;;;-147.47;100.00;64613.53;5086106;27;45377;-64
2023/05/07 07:28:00;;;;;;;;;19.67;18.00;;;;;-147.47;100.00;64613.53;5073888;27;46067;-65
2023/05/07 07:30:26;;;;;;;;;4.67;4.00;;;;;-147.47;100.00;64613.53;5092294;27;45767;-68
2023/05/07 07:32:52;;;;;;;;;17.33;11.67;;;;;-147.47;100.00;64613.53;5093037;27;47108;-66
2023/05/07 07:35:17;;;;;;;;;58.67;48.00;;;;;-147.47;100.00;64613.53;5092112;27;45315;-67
2023/05/07 07:37:43;;;;;;;;;67.50;54.00;;;;;-147.47;100.00;64613.53;5078288;27;45391;-65
2023/05/07 07:40:09;;;;;;;;;51.00;40.00;;;;;-147.47;100.00;64613.53;5078271;27;45481;-64
2023/05/07 07:42:34;;;;;;;;;18.33;15.67;;;;;-147.47;100.00;64613.53;5085576;27;45806;-65
2023/05/07 07:45:00;;;;;;;;;15.67;14.00;;;;;-147.47;100.00;64613.53;5090070;27;45710;-64
2023/05/07 07:47:25;;;;;;;;;6.00;5.00;;;;;-147.47;100.00;64613.53;5094494;27;45624;-66
2023/05/07 07:49:51;;;;;;;;;7.67;3.67;;;;;-147.47;100.00;64613.53;5090371;27;45302;-67
2023/05/07 07:52:16;;;;;;;;;8.00;4.67;;;;;-147.47;100.00;64613.53;5083672;27;45948;-69
2023/05/07 07:54:42;;;;;;;;;2.00;1.25;;;;;-147.47;100.00;64613.53;5090113;27;45753;-66
2023/05/07 07:57:08;;;;;;;;;2.25;2.25;;;;;-147.47;100.00;64613.53;5069495;27;45569;-65
2023/05/07 07:59:34;;;;;;;;;2.00;2.00;;;;;-147.47;100.00;64613.53;5082464;27;45770;-67
2023/05/07 08:01:59;;;;;;;;;2.00;2.00;;;;;-147.47;100.00;64613.53;5093232;27;45413;-65
2023/05/07 08:04:25;;;;;;;;;3.25;2.00;;;;;-147.47;100.00;64613.53;5089406;27;45417;-68
2023/05/07 08:06:50;;;;;;;;;2.00;1.75;;;;;-147.47;100.00;64613.53;5078202;27;45828;-68
2023/05/07 08:09:16;;;;;;;;;1.00;1.00;;;;;-147.47;100.00;64613.53;5087498;27;45460;-65
2023/05/07 08:11:41;;;;;;;;;1.25;1.00;;;;;-147.47;100.00;64613.53;5093622;27;46150;-67
2023/05/07 08:14:06;;;;;;;;;1.25;1.25;;;;;-147.47;100.00;64613.53;5093481;27;45622;-67
2023/05/07 08:16:32;;;;;;;;;1.00;1.00;;;;;-147.47;100.00;64613.53;5088444;27;45750;-68
2023/05/07 08:18:57;;;;;;;;;3.25;2.00;;;;;-147.47;100.00;64613.53;5093477;27;45450;-66
2023/05/07 08:21:23;;;;;;;;;1.00;1.00;;;;;-147.47;100.00;64613.53;5091946;27;45833;-66
2023/05/07 08:23:48;;;;;;;;;1.75;1.00;;;;;-147.47;100.00;64613.53;5074823;27;45433;-66
2023/05/07 08:26:14;;;;;;;;;1.25;1.25;;;;;-147.47;100.00;64613.53;5091358;27;45763;-68
2023/05/07 08:28:40;;;;;;;;;2.00;1.00;;;;;-147.47;100.00;64613.53;5092687;27;45713;-69
2023/05/07 08:31:05;;;;;;;;;0.50;0.50;;;;;-147.47;100.00;64613.53;5082666;27;45797;-67
2023/05/07 08:33:31;;;;;;;;;2.25;2.00;;;;;-147.47;100.00;64613.53;5090209;27;45799;-66
2023/05/07 08:35:56;;;;;;;;;0.00;0.00;;;;;-147.47;100.00;64613.53;5068718;27;45786;-66
2023/05/07 08:38:22;;;;;;;;;1.00;1.00;;;;;-147.47;100.00;64613.53;5088689;27;45727;-67
2023/05/07 08:40:47;;;;;;;;;3.00;2.00;;;;;-147.47;100.00;64613.53;5081493;27;46186;-65
2023/05/07 08:43:14;;;;;;;;;1.00;1.00;;;;;-147.47;100.00;64613.53;5084180;27;45368;-66
2023/05/07 08:45:40;;;;;;;;;0.00;0.00;;;;;-147.47;100.00;64613.53;5081773;27;45566;-68
2023/05/07 08:48:12;;;;;;;;;2.00;2.00;;;;;-147.47;100.00;64613.53;5093952;27;45954;-67
2023/05/07 08:50:37;;;;;;;;;1.00;1.00;;;;;-147.47;100.00;64613.53;5109256;22;46391;-75
2023/05/07 08:53:04;;;;;;;;;2.00;1.75;;;;;-147.47;100.00;64613.53;5093471;27;45816;-74
2023/05/07 08:55:31;;;;;;;;;3.75;2.75;;;;;-147.47;100.00;64613.53;5083739;27;45419;-75
2023/05/07 08:57:56;;;;;;;;;3.50;2.50;;;;;-147.47;100.00;64613.53;5077599;27;45770;-74
2023/05/07 09:00:22;;;;;;;;;3.50;3.50;;;;;-147.47;100.00;64613.53;5090927;27;45988;-75
2023/05/07 09:02:47;;;;;;;;;2.50;2.50;;;;;-147.47;100.00;64613.53;5093422;27;45444;-76
2023/05/07 09:05:13;;;;;;;;;2.00;2.00;;;;;-147.47;100.00;64613.53;5066924;28;45597;-75
2023/05/07 09:07:39;;;;;;;;;5.33;4.00;;;;;-147.47;100.00;64613.53;5078473;27;46840;-75
2023/05/07 09:10:05;;;;;;;;;4.00;4.00;;;;;-147.47;100.00;64613.53;5084202;27;46944;-77
2023/05/07 09:12:31;;;;;;;;;4.00;3.00;;;;;-147.47;100.00;64613.53;5092244;27;45547;-74
2023/05/07 09:14:57;;;;;;;;;4.00;4.00;;;;;-147.47;100.00;64613.53;5075685;28;45656;-76
2023/05/07 09:17:22;;;;;;;;;2.00;2.00;;;;;-147.47;100.00;64613.53;5091148;27;45916;-75
2023/05/07 09:19:47;;;;;;;;;3.50;2.25;;;;;-147.47;100.00;64613.53;5097011;27;46023;-76
2023/05/07 09:22:13;;;;;;;;;4.75;4.75;;;;;-147.47;100.00;64613.53;5096414;27;45464;-76
2023/05/07 09:24:39;;;;;;;;;2.75;2.75;;;;;-147.47;100.00;64613.53;5090918;27;45418;-75
2023/05/07 09:27:05;;;;;;;;;1.00;1.00;;;;;-147.47;100.00;64613.53;5096106;27;45427;-75
2023/05/07 09:29:37;;;;;;;;;4.75;3.75;;;;;-147.47;100.00;64613.53;5088092;27;45512;-75
2023/05/07 09:32:07;;;;;;;;;2.25;2.25;;;;;-147.47;100.00;64613.53;5078620;27;45692;-75
2023/05/07 09:34:33;;;;;;;;;2.25;2.00;;;;;-147.47;100.00;64613.53;5081216;27;45567;-76
2023/05/07 09:37:02;;;;;;;;;9.75;8.50;;;;;-147.47;100.00;64613.53;5088912;27;45425;-76
2023/05/07 09:39:42;;;;;;;;;5.75;5.50;;;;;-147.47;100.00;64613.53;5087379;27;46162;-74
2023/05/07 09:42:07;;;;;;;;;4.50;3.00;;;;;-147.47;100.00;64613.53;5090018;27;45754;-75
2023/05/07 09:44:34;;;;;;;;;4.75;4.75;;;;;-147.47;100.00;64613.53;5069641;27;45402;-76
2023/05/07 09:47:01;;;;;;;;;4.25;3.00;;;;;-147.47;100.00;64613.53;5081365;27;45672;-78
2023/05/07 09:49:30;;;;;;;;;2.75;2.75;;;;;-147.47;100.00;64613.53;5086873;27;46128;-76
2023/05/07 09:51:56;;;;;;;;;3.00;3.00;;;;;-147.47;100.00;64613.53;5094921;27;45496;-74
2023/05/07 09:54:22;;;;;;;;;3.75;3.75;;;;;-147.47;100.00;64613.53;5097117;27;45851;-76
2023/05/07 09:56:49;;;;;;;;;11.00;11.00;;;;;-147.47;100.00;64613.53;5090621;27;45354;-76
2023/05/07 09:59:15;;;;;;;;;3.00;2.00;;;;;-147.47;100.00;64613.53;5073111;27;48144;-76
2023/05/07 10:01:43;;;;;;;;;3.00;3.00;;;;;-147.47;100.00;64613.53;5087842;27;45468;-76
2023/05/07 10:04:09;;;;;;;;;3.00;3.00;;;;;-147.47;100.00;64613.53;5075003;27;45407;-74
2023/05/07 10:06:35;;;;;;;;;4.25;4.00;;;;;-147.47;100.00;64613.53;5084226;27;45647;-74
2023/05/07 10:09:01;;;;;;;;;4.00;4.00;;;;;-147.47;100.00;64613.53;5091285;27;46070;-74
2023/05/07 10:11:27;;;;;;;;;3.50;3.50;;;;;-147.47;100.00;64613.53;5086761;27;45819;-74
2023/05/07 10:13:53;;;;;;;;;4.00;3.00;;;;;-147.47;100.00;64613.53;5093137;27;45508;-76
2023/05/07 10:16:19;;;;;;;;;3.00;3.00;;;;;-147.47;100.00;64613.53;5070491;27;46220;-72
2023/05/07 10:18:46;;;;;;;;;5.25;4.25;;;;;-147.47;100.00;64613.53;5064760;28;45894;-74
2023/05/07 10:21:17;;;;;;;;;8.67;6.00;;;;;-147.47;100.00;64613.53;5085626;27;45501;-74
2023/05/07 10:23:50;;;;;;;;;6.25;6.00;;;;;-147.47;100.00;64613.53;5088399;27;45670;-74
2023/05/07 10:26:18;;;;;;;;;6.33;6.33;;;;;-147.47;100.00;64613.53;5082473;27;45857;-74
2023/05/07 10:28:47;;;;;;;;;6.00;6.00;;;;;-147.47;100.00;64613.53;5078908;27;45965;-76
2023/05/07 10:31:34;;;;;;;;;5.25;4.50;;;;;-147.47;100.00;64613.53;5071172;27;45631;-75
2023/05/07 10:34:02;;;;;;;;;4.00;3.25;;;;;-147.47;100.00;64613.53;5067867;27;45814;-77
2023/05/07 10:36:28;;;;;;;;;4.50;3.75;;;;;-147.47;100.00;64613.53;5090901;27;45937;-75
2023/05/07 10:38:54;;;;;;;;;5.25;4.25;;;;;-147.47;100.00;64613.53;5086772;27;45465;-76
2023/05/07 10:41:20;;;;;;;;;3.75;3.75;;;;;-147.47;100.00;64613.53;5087018;27;45520;-76
2023/05/07 10:43:46;;;;;;;;;4.00;4.00;;;;;-147.47;100.00;64613.53;5087230;27;45787;-74
2023/05/07 10:46:15;;;;;;;;;6.00;6.00;;;;;-147.47;100.00;64613.53;5064094;27;45972;-84
2023/05/07 10:49:00;;;;;;;;;2.00;2.00;;;;;-147.47;100.00;64613.53;5073605;27;45790;-74
2023/05/07 10:51:26;;;;;;;;;4.25;4.25;;;;;-147.47;100.00;64613.53;5086372;27;45740;-74
2023/05/07 10:54:10;;;;;;;;;4.50;4.00;;;;;-147.47;100.00;64613.53;5082509;27;45663;-76
2023/05/07 10:56:43;;;;;;;;;4.50;4.25;;;;;-147.47;100.00;64613.53;5061820;27;45436;-75
2023/05/07 10:59:20;;;;;;;;;3.75;3.75;;;;;-147.47;100.00;64613.53;5077503;27;45802;-73
2023/05/07 11:02:02;;;;;;;;;4.25;4.25;;;;;-147.47;100.00;64613.53;5065729;27;45769;-74
2023/05/07 11:04:28;;;;;;;;;2.25;2.25;;;;;-147.47;100.00;64613.53;5067041;27;45938;-75